createdAt,value
2022-10-09T00:00:14.181Z,7.40
2022-10-09T00:02:42.066Z,7.30
2022-10-09T00:05:10.281Z,7.30
2022-10-09T00:07:38.141Z,7.30
2022-10-09T00:10:06.900Z,7.30
2022-10-09T00:12:34.717Z,7.20
2022-10-09T00:15:02.547Z,7.30
2022-10-09T00:17:31.737Z,7.30
2022-10-09T00:19:59.561Z,7.30
2022-10-09T00:22:27.565Z,7.30
2022-10-09T00:24:55.412Z,7.20
2022-10-09T00:27:23.541Z,7.10
2022-10-09T00:29:51.985Z,7.10
2022-10-09T00:32:19.889Z,7.00
2022-10-09T00:34:49.096Z,6.90
2022-10-09T00:37:16.961Z,6.90
2022-10-09T00:39:44.827Z,6.80
2022-10-09T00:42:13.670Z,6.80
2022-10-09T00:44:52.932Z,6.80
2022-10-09T00:47:24.651Z,6.70
2022-10-09T00:49:57.574Z,6.70
2022-10-09T00:52:27.151Z,6.70
2022-10-09T00:54:57.130Z,6.70
2022-10-09T00:57:25.964Z,6.80
2022-10-09T00:59:53.815Z,6.80
2022-10-09T01:02:22.025Z,6.80
2022-10-09T01:04:49.942Z,6.80
2022-10-09T01:07:32.000Z,6.90
2022-10-09T01:10:07.355Z,6.90
2022-10-09T01:12:47.522Z,6.80
2022-10-09T01:15:20.684Z,6.80
2022-10-09T01:17:56.587Z,6.90
2022-10-09T01:20:38.338Z,6.70
2022-10-09T01:23:49.023Z,6.70
2022-10-09T01:26:33.707Z,6.60
2022-10-09T01:29:06.659Z,6.50
2022-10-09T01:31:38.848Z,6.50
2022-10-09T01:34:08.329Z,6.50
2022-10-09T01:36:37.933Z,6.60
2022-10-09T01:39:08.974Z,6.70
2022-10-09T01:41:36.919Z,6.80
2022-10-09T01:44:17.031Z,6.80
2022-10-09T01:46:44.927Z,6.80
2022-10-09T01:49:21.414Z,6.80
2022-10-09T01:51:57.422Z,6.70
2022-10-09T01:54:35.511Z,6.70
2022-10-09T01:57:05.918Z,6.80
2022-10-09T01:59:40.569Z,6.80
2022-10-09T02:02:09.459Z,6.80
2022-10-09T02:04:39.957Z,6.90
2022-10-09T02:07:07.790Z,6.90
2022-10-09T02:09:38.375Z,6.80
2022-10-09T02:12:09.465Z,6.70
2022-10-09T02:14:39.595Z,6.60
2022-10-09T02:17:11.276Z,6.60
2022-10-09T02:19:44.070Z,6.40
2022-10-09T02:22:16.572Z,6.40
2022-10-09T02:24:45.534Z,6.30
2022-10-09T02:27:14.416Z,6.40
2022-10-09T02:29:45.811Z,6.30
2022-10-09T02:32:14.793Z,6.20
2022-10-09T02:34:42.743Z,6.10
2022-10-09T02:37:10.593Z,6.10
2022-10-09T02:39:38.619Z,6.00
2022-10-09T02:42:06.543Z,6.00
2022-10-09T02:44:34.386Z,5.90
2022-10-09T02:47:03.666Z,5.90
2022-10-09T02:49:31.457Z,6.00
2022-10-09T02:51:59.293Z,5.80
2022-10-09T02:54:27.137Z,5.80
2022-10-09T02:56:54.944Z,5.80
2022-10-09T02:59:22.758Z,5.80
2022-10-09T03:01:50.675Z,5.80
2022-10-09T03:04:19.937Z,5.90
2022-10-09T03:06:47.805Z,5.90
2022-10-09T03:09:15.658Z,5.90
2022-10-09T03:11:43.624Z,6.00
2022-10-09T03:14:11.736Z,6.00
2022-10-09T03:16:39.545Z,6.00
2022-10-09T03:19:07.387Z,6.10
2022-10-09T03:21:36.517Z,6.10
2022-10-09T03:24:04.495Z,6.10
2022-10-09T03:26:32.367Z,6.20
2022-10-09T03:29:00.176Z,6.20
2022-10-09T03:34:16.373Z,6.20
2022-10-09T03:36:45.701Z,6.30
2022-10-09T03:39:13.719Z,6.20
2022-10-09T03:41:41.664Z,6.20
2022-10-09T03:44:09.518Z,6.20
2022-10-09T03:46:37.438Z,6.20
2022-10-09T03:49:05.402Z,6.20
2022-10-09T03:51:33.214Z,6.20
2022-10-09T03:54:02.386Z,6.20
2022-10-09T03:56:30.175Z,6.30
2022-10-09T03:58:58.111Z,6.40
2022-10-09T04:01:25.971Z,6.40
2022-10-09T04:03:53.809Z,6.50
2022-10-09T04:06:21.613Z,6.50
2022-10-09T04:08:49.429Z,6.60
2022-10-09T04:11:18.632Z,6.60
2022-10-09T04:13:46.456Z,6.70
2022-10-09T04:16:14.324Z,6.70
2022-10-09T04:18:44.624Z,6.70
2022-10-09T04:21:13.391Z,6.70
2022-10-09T04:23:41.360Z,6.80
2022-10-09T04:26:11.680Z,6.80
2022-10-09T04:28:40.969Z,6.90
2022-10-09T04:31:08.961Z,6.80
2022-10-09T04:33:36.791Z,6.90
2022-10-09T04:36:04.939Z,6.80
2022-10-09T04:38:33.135Z,6.80
2022-10-09T04:41:02.612Z,6.80
2022-10-09T04:43:30.772Z,6.80
2022-10-09T04:46:00.168Z,6.80
2022-10-09T04:48:28.025Z,6.80
2022-10-09T04:50:55.869Z,6.80
2022-10-09T04:53:23.742Z,6.80
2022-10-09T04:55:51.658Z,6.80
2022-10-09T04:58:19.481Z,6.80
2022-10-09T05:00:47.975Z,6.80
2022-10-09T05:03:17.184Z,6.80
2022-10-09T05:05:44.979Z,6.80
2022-10-09T05:08:12.800Z,6.80
2022-10-09T05:10:40.628Z,6.70
2022-10-09T05:13:08.476Z,6.70
2022-10-09T05:15:38.179Z,6.70
2022-10-09T05:18:06.172Z,6.70
2022-10-09T05:20:35.469Z,6.70
2022-10-09T05:23:03.349Z,6.70
2022-10-09T05:25:31.287Z,6.70
2022-10-09T05:28:00.258Z,6.60
2022-10-09T05:30:28.152Z,6.60
2022-10-09T05:32:56.292Z,6.50
2022-10-09T05:35:24.159Z,6.40
2022-10-09T05:37:53.380Z,6.30
2022-10-09T05:40:23.645Z,6.20
2022-10-09T05:42:54.889Z,6.10
2022-10-09T05:45:23.251Z,6.10
2022-10-09T05:47:51.064Z,6.10
2022-10-09T05:50:19.113Z,6.10
2022-10-09T05:52:47.208Z,6.20
2022-10-09T05:55:16.718Z,6.30
2022-10-09T05:57:44.525Z,6.40
2022-10-09T06:00:14.161Z,6.40
2022-10-09T06:02:41.959Z,6.50
2022-10-09T06:05:10.429Z,6.60
2022-10-09T06:07:38.225Z,6.60
2022-10-09T06:10:06.762Z,6.70
2022-10-09T06:12:35.951Z,6.70
2022-10-09T06:15:03.844Z,6.80
2022-10-09T06:17:31.629Z,6.80
2022-10-09T06:19:59.466Z,6.90
2022-10-09T06:22:27.279Z,6.90
2022-10-09T06:24:55.427Z,7.00
2022-10-09T06:27:23.246Z,7.00
2022-10-09T06:29:53.286Z,7.10
2022-10-09T06:32:21.145Z,7.10
2022-10-09T06:34:48.992Z,7.10
2022-10-09T06:37:16.821Z,7.20
2022-10-09T06:39:44.609Z,7.30
2022-10-09T06:42:12.462Z,7.30
2022-10-09T06:44:41.691Z,7.40
2022-10-09T06:47:10.892Z,7.40
2022-10-09T06:49:38.671Z,7.50
2022-10-09T06:52:06.481Z,7.50
2022-10-09T06:54:34.421Z,7.60
2022-10-09T06:57:02.254Z,7.70
2022-10-09T06:59:30.200Z,7.80
2022-10-09T07:01:58.106Z,7.80
2022-10-09T07:04:27.758Z,7.90
2022-10-09T07:06:55.565Z,7.90
2022-10-09T07:09:23.392Z,8.00
2022-10-09T07:11:51.212Z,8.10
2022-10-09T07:14:19.115Z,8.20
2022-10-09T07:16:49.619Z,8.30
2022-10-09T07:19:18.309Z,8.50
2022-10-09T07:21:49.491Z,8.50
2022-10-09T07:24:20.278Z,8.60
2022-10-09T07:26:48.517Z,8.70
2022-10-09T07:29:18.473Z,8.80
2022-10-09T07:31:46.652Z,8.90
2022-10-09T07:34:14.895Z,9.10
2022-10-09T07:36:42.723Z,9.20
2022-10-09T07:39:11.972Z,9.40
2022-10-09T07:41:39.825Z,9.60
2022-10-09T07:44:07.640Z,9.80
2022-10-09T07:46:35.499Z,10.10
2022-10-09T07:49:03.982Z,10.40
2022-10-09T07:51:32.747Z,10.70
2022-10-09T07:54:01.893Z,11.00
2022-10-09T07:56:33.023Z,11.30
2022-10-09T07:59:02.399Z,11.80
2022-10-09T08:01:31.850Z,12.30
2022-10-09T08:04:00.802Z,12.80
2022-10-09T08:06:29.242Z,13.50
2022-10-09T08:08:58.966Z,14.10
2022-10-09T08:11:28.639Z,14.70
2022-10-09T08:13:57.992Z,15.20
2022-10-09T08:16:26.750Z,15.60
2022-10-09T08:18:56.293Z,16.20
2022-10-09T08:21:24.165Z,16.70
2022-10-09T08:23:55.152Z,17.00
2022-10-09T08:26:24.672Z,17.30
2022-10-09T08:28:54.971Z,17.60
2022-10-09T08:31:25.026Z,18.00
2022-10-09T08:33:54.407Z,18.10
2022-10-09T08:36:23.017Z,18.30
2022-10-09T08:38:51.157Z,18.80
2022-10-09T08:41:28.392Z,18.90
2022-10-09T08:44:02.639Z,19.00
2022-10-09T08:46:40.659Z,19.30
2022-10-09T08:49:15.381Z,19.70
2022-10-09T08:51:46.448Z,20.10
2022-10-09T08:54:22.857Z,20.10
2022-10-09T08:56:51.857Z,20.30
2022-10-09T08:59:19.732Z,20.40
2022-10-09T09:01:58.403Z,20.40
2022-10-09T09:04:36.613Z,20.50
2022-10-09T09:07:14.883Z,20.40
2022-10-09T09:09:48.667Z,20.70
2022-10-09T09:12:22.948Z,20.80
2022-10-09T09:15:02.751Z,20.90
2022-10-09T09:17:41.335Z,21.00
2022-10-09T09:20:17.174Z,21.20
2022-10-09T09:22:48.521Z,21.30
2022-10-09T09:25:21.248Z,21.00
2022-10-09T09:27:52.017Z,21.20
2022-10-09T09:30:24.176Z,21.10
2022-10-09T09:33:01.589Z,21.00
2022-10-09T09:35:36.932Z,20.90
2022-10-09T09:38:04.807Z,21.10
2022-10-09T09:40:37.357Z,21.20
2022-10-09T09:43:16.504Z,20.60
2022-10-09T09:45:44.782Z,20.10
2022-10-09T09:48:17.248Z,19.70
2022-10-09T09:50:59.964Z,19.50
2022-10-09T09:53:36.734Z,19.20
2022-10-09T09:56:05.502Z,18.90
2022-10-09T09:58:37.180Z,18.70
2022-10-09T10:01:07.149Z,18.40
2022-10-09T10:03:37.236Z,18.10
2022-10-09T10:06:05.650Z,18.00
2022-10-09T10:08:35.215Z,17.90
2022-10-09T10:11:06.556Z,17.70
2022-10-09T10:13:37.973Z,17.70
2022-10-09T10:16:08.583Z,17.50
2022-10-09T10:18:41.917Z,17.40
2022-10-09T10:21:13.152Z,17.20
2022-10-09T10:23:43.676Z,17.00
2022-10-09T10:26:20.768Z,17.00
2022-10-09T10:28:52.080Z,17.00
2022-10-09T10:31:37.288Z,17.20
2022-10-09T10:34:15.507Z,17.20
2022-10-09T10:36:43.407Z,17.20
2022-10-09T10:39:19.708Z,17.10
2022-10-09T10:41:52.045Z,17.20
2022-10-09T10:44:26.811Z,17.40
2022-10-09T10:47:00.038Z,17.30
2022-10-09T10:49:33.530Z,17.50
2022-10-09T10:52:18.256Z,17.40
2022-10-09T10:54:54.395Z,17.50
2022-10-09T10:57:29.352Z,17.60
2022-10-09T11:00:05.739Z,17.70
2022-10-09T11:03:10.441Z,17.80
2022-10-09T11:05:46.344Z,17.80
2022-10-09T11:08:34.014Z,17.90
2022-10-09T11:11:05.986Z,18.00
2022-10-09T11:13:41.402Z,18.10
2022-10-09T11:16:22.912Z,18.10
2022-10-09T11:19:06.027Z,18.10
2022-10-09T11:21:53.759Z,18.20
2022-10-09T11:24:46.009Z,18.40
2022-10-09T11:27:19.972Z,18.30
2022-10-09T11:29:52.344Z,18.40
2022-10-09T11:32:25.329Z,18.40
2022-10-09T11:34:59.519Z,18.60
2022-10-09T11:37:34.811Z,18.60
2022-10-09T11:40:06.969Z,18.70
2022-10-09T11:42:35.473Z,18.70
2022-10-09T11:45:16.395Z,18.90
2022-10-09T11:47:52.447Z,19.00
2022-10-09T11:50:34.478Z,19.00
2022-10-09T11:53:07.529Z,19.00
2022-10-09T11:55:35.880Z,19.00
2022-10-09T11:58:14.997Z,19.00
2022-10-09T12:00:43.677Z,19.20
2022-10-09T12:03:26.364Z,19.30
2022-10-09T12:06:04.873Z,19.40
2022-10-09T12:08:34.774Z,19.40
2022-10-09T12:11:12.853Z,19.50
2022-10-09T12:13:52.539Z,19.40
2022-10-09T12:16:36.675Z,19.50
2022-10-09T12:19:12.309Z,19.40
2022-10-09T12:21:45.573Z,19.50
2022-10-09T12:24:19.362Z,19.50
2022-10-09T12:26:48.854Z,19.50
2022-10-09T12:29:25.278Z,19.50
2022-10-09T12:31:58.653Z,19.60
2022-10-09T12:34:30.942Z,19.60
2022-10-09T12:37:12.611Z,19.70
2022-10-09T12:39:42.358Z,19.60
2022-10-09T12:42:20.003Z,19.60
2022-10-09T12:44:49.484Z,19.50
2022-10-09T12:47:21.993Z,19.60
2022-10-09T12:50:01.153Z,19.60
2022-10-09T12:52:29.970Z,19.60
2022-10-09T12:54:59.204Z,19.60
2022-10-09T12:57:28.107Z,19.50
2022-10-09T12:59:56.849Z,19.40
2022-10-09T13:02:24.923Z,19.20
2022-10-09T13:04:59.076Z,19.30
2022-10-09T13:07:30.100Z,19.50
2022-10-09T13:10:02.659Z,19.50
2022-10-09T13:12:32.109Z,19.50
2022-10-09T13:15:01.048Z,19.50
2022-10-09T13:20:25.395Z,19.50
2022-10-09T13:22:58.449Z,19.60
2022-10-09T13:25:29.775Z,19.60
2022-10-09T13:27:58.469Z,19.80
2022-10-09T13:30:28.108Z,19.70
2022-10-09T13:32:56.479Z,19.60
2022-10-09T13:35:24.375Z,19.60
2022-10-09T13:37:52.789Z,19.60
2022-10-09T13:40:22.231Z,19.60
2022-10-09T13:42:55.864Z,19.50
2022-10-09T13:45:23.909Z,19.40
2022-10-09T13:47:52.465Z,19.40
2022-10-09T13:50:20.674Z,19.40
2022-10-09T13:52:48.635Z,19.30
2022-10-09T13:55:17.095Z,19.30
2022-10-09T13:57:44.980Z,19.30
2022-10-09T14:00:15.274Z,19.20
2022-10-09T14:02:43.115Z,19.20
2022-10-09T14:05:10.964Z,19.00
2022-10-09T14:07:38.770Z,18.90
2022-10-09T14:10:07.526Z,18.90
2022-10-09T14:12:35.341Z,18.90
2022-10-09T14:15:03.254Z,18.90
2022-10-09T14:17:32.434Z,18.80
2022-10-09T14:20:00.342Z,18.70
2022-10-09T14:22:28.208Z,18.70
2022-10-09T14:24:56.039Z,18.60
2022-10-09T14:27:23.933Z,18.60
2022-10-09T14:29:54.143Z,18.50
2022-10-09T14:32:24.559Z,18.50
2022-10-09T14:34:54.044Z,18.50
2022-10-09T14:37:39.741Z,18.40
2022-10-09T14:40:09.390Z,18.30
2022-10-09T14:42:37.786Z,18.30
2022-10-09T14:45:06.537Z,18.30
2022-10-09T14:47:34.374Z,18.30
2022-10-09T14:50:03.626Z,18.30
2022-10-09T14:52:36.281Z,18.20
2022-10-09T14:55:04.305Z,18.20
2022-10-09T14:57:35.455Z,18.10
2022-10-09T15:00:04.706Z,18.10
2022-10-09T15:02:32.729Z,18.10
2022-10-09T15:05:00.642Z,18.10
2022-10-09T15:07:30.014Z,18.10
2022-10-09T15:09:57.946Z,18.00
2022-10-09T15:12:25.761Z,18.00
2022-10-09T15:14:53.786Z,18.00
2022-10-09T15:17:21.603Z,17.90
2022-10-09T15:19:49.406Z,17.90
2022-10-09T15:22:17.228Z,17.90
2022-10-09T15:24:48.008Z,17.80
2022-10-09T15:27:15.792Z,17.80
2022-10-09T15:29:43.594Z,17.80
2022-10-09T15:32:11.412Z,17.70
2022-10-09T15:34:41.238Z,17.60
2022-10-09T15:37:09.355Z,17.60
2022-10-09T15:39:37.184Z,17.60
2022-10-09T15:42:06.633Z,17.60
2022-10-09T15:44:34.443Z,17.60
2022-10-09T15:47:02.372Z,17.60
2022-10-09T15:49:30.189Z,17.50
2022-10-09T15:51:57.991Z,17.50
2022-10-09T15:54:25.830Z,17.50
2022-10-09T15:56:54.516Z,17.50
2022-10-09T15:59:23.705Z,17.40
2022-10-09T16:01:51.524Z,17.30
2022-10-09T16:04:19.372Z,17.30
2022-10-09T16:06:47.172Z,17.30
2022-10-09T16:09:14.980Z,17.20
2022-10-09T16:11:42.833Z,17.10
2022-10-09T16:14:10.632Z,17.00
2022-10-09T16:16:39.782Z,17.00
2022-10-09T16:19:07.790Z,17.00
2022-10-09T16:21:35.589Z,17.00
2022-10-09T16:24:03.369Z,17.00
2022-10-09T16:26:31.326Z,16.90
2022-10-09T16:29:00.456Z,16.80
2022-10-09T16:31:30.133Z,16.70
2022-10-09T16:33:59.785Z,16.60
2022-10-09T16:36:28.247Z,16.40
2022-10-09T16:38:57.157Z,16.20
2022-10-09T16:41:25.532Z,16.00
2022-10-09T16:43:54.980Z,15.80
2022-10-09T16:46:24.582Z,15.60
2022-10-09T16:48:53.588Z,15.50
2022-10-09T16:51:24.922Z,15.40
2022-10-09T16:53:54.149Z,15.30
2022-10-09T16:56:23.907Z,15.40
2022-10-09T16:58:55.752Z,15.30
2022-10-09T17:01:24.176Z,15.20
2022-10-09T17:03:54.044Z,15.00
2022-10-09T17:06:24.492Z,14.90
2022-10-09T17:08:53.801Z,14.80
2022-10-09T17:11:23.047Z,14.70
2022-10-09T17:13:51.033Z,14.60
2022-10-09T17:16:22.770Z,14.50
2022-10-09T17:18:51.158Z,14.30
2022-10-09T17:21:19.809Z,14.20
2022-10-09T17:23:49.296Z,14.10
2022-10-09T17:26:19.335Z,14.00
2022-10-09T17:28:48.146Z,13.90
2022-10-09T17:31:18.899Z,13.80
2022-10-09T17:33:48.823Z,13.70
2022-10-09T17:36:18.420Z,13.70
2022-10-09T17:38:48.795Z,13.60
2022-10-09T17:41:18.756Z,13.50
2022-10-09T17:43:46.948Z,13.40
2022-10-09T17:46:15.692Z,13.20
2022-10-09T17:48:45.156Z,13.20
2022-10-09T17:51:16.807Z,13.10
2022-10-09T17:53:44.821Z,13.10
2022-10-09T17:56:14.522Z,13.00
2022-10-09T17:58:42.682Z,12.90
2022-10-09T18:01:12.366Z,12.80
2022-10-09T18:03:40.224Z,12.80
2022-10-09T18:06:10.108Z,12.70
2022-10-09T18:08:38.514Z,12.70
2022-10-09T18:11:09.725Z,12.60
2022-10-09T18:13:40.723Z,12.60
2022-10-09T18:16:10.401Z,12.50
2022-10-09T18:18:38.411Z,12.30
2022-10-09T18:21:08.222Z,12.20
2022-10-09T18:23:36.718Z,12.10
2022-10-09T18:26:08.821Z,12.00
2022-10-09T18:28:38.341Z,12.00
2022-10-09T18:31:07.291Z,12.00
2022-10-09T18:33:35.486Z,12.10
2022-10-09T18:36:04.919Z,12.00
2022-10-09T18:38:33.086Z,12.00
2022-10-09T18:41:01.726Z,12.00
2022-10-09T18:43:29.781Z,12.00
2022-10-09T18:46:00.693Z,11.90
2022-10-09T18:48:30.493Z,11.90
2022-10-09T18:50:59.167Z,11.90
2022-10-09T18:53:27.637Z,11.80
2022-10-09T18:55:55.721Z,11.80
2022-10-09T18:58:23.860Z,11.70
2022-10-09T19:00:51.783Z,11.70
2022-10-09T19:03:21.014Z,11.50
2022-10-09T19:05:48.850Z,11.30
2022-10-09T19:08:16.715Z,11.20
2022-10-09T19:10:49.699Z,11.20
2022-10-09T19:13:17.534Z,11.10
2022-10-09T19:15:51.577Z,11.10
2022-10-09T19:18:21.391Z,11.20
2022-10-09T19:20:49.433Z,11.10
2022-10-09T19:23:17.608Z,11.00
2022-10-09T19:25:50.950Z,11.00
2022-10-09T19:28:19.606Z,10.90
2022-10-09T19:30:48.099Z,11.00
2022-10-09T19:33:16.304Z,10.90
2022-10-09T19:35:50.797Z,10.90
2022-10-09T19:38:20.153Z,10.90
2022-10-09T19:40:48.868Z,10.90
2022-10-09T19:43:18.250Z,11.00
2022-10-09T19:45:48.884Z,11.00
2022-10-09T19:48:17.332Z,10.90
2022-10-09T19:50:46.380Z,10.90
2022-10-09T19:53:15.695Z,10.90
2022-10-09T19:55:43.597Z,10.80
2022-10-09T19:58:11.542Z,10.80
2022-10-09T20:00:42.682Z,10.70
2022-10-09T20:03:11.066Z,10.60
2022-10-09T20:05:39.126Z,10.60
2022-10-09T20:08:07.023Z,10.50
2022-10-09T20:10:38.469Z,10.40
2022-10-09T20:13:06.719Z,10.40
2022-10-09T20:15:34.714Z,10.40
2022-10-09T20:18:02.529Z,10.30
2022-10-09T20:20:30.376Z,10.20
2022-10-09T20:22:58.195Z,10.10
2022-10-09T20:25:26.895Z,10.10
2022-10-09T20:27:56.085Z,10.10
2022-10-09T20:30:23.904Z,10.10
2022-10-09T20:32:55.391Z,10.10
2022-10-09T20:35:26.684Z,10.20
2022-10-09T20:37:54.553Z,10.20
2022-10-09T20:40:22.413Z,10.20
2022-10-09T20:42:50.511Z,10.20
2022-10-09T20:45:19.877Z,10.20
2022-10-09T20:47:47.704Z,10.10
2022-10-09T20:50:15.753Z,10.10
2022-10-09T20:52:43.546Z,10.00
2022-10-09T20:55:11.430Z,9.90
2022-10-09T20:57:39.287Z,9.90
2022-10-09T21:00:07.999Z,9.80
2022-10-09T21:02:37.145Z,9.80
2022-10-09T21:05:05.452Z,9.80
2022-10-09T21:07:33.321Z,9.70
2022-10-09T21:10:01.139Z,9.60
2022-10-09T21:12:28.933Z,9.50
2022-10-09T21:14:56.766Z,9.50
2022-10-09T21:17:24.573Z,9.40
2022-10-09T21:19:55.371Z,9.30
2022-10-09T21:22:23.263Z,9.30
2022-10-09T21:24:51.184Z,9.30
2022-10-09T21:27:19.253Z,9.30
2022-10-09T21:29:47.203Z,9.30
2022-10-09T21:32:15.020Z,9.30
2022-10-09T21:34:42.856Z,9.30
2022-10-09T21:37:21.554Z,9.30
2022-10-09T21:39:50.041Z,9.20
2022-10-09T21:42:17.870Z,9.10
2022-10-09T21:44:45.686Z,9.00
2022-10-09T21:47:17.618Z,9.00
2022-10-09T21:49:45.611Z,9.00
2022-10-09T21:52:14.757Z,8.90
2022-10-09T21:54:42.557Z,8.90
2022-10-09T21:57:10.523Z,8.90
2022-10-09T21:59:38.334Z,9.00
2022-10-09T22:02:06.193Z,8.90
2022-10-09T22:04:34.177Z,8.80
2022-10-09T22:07:02.013Z,8.70
2022-10-09T22:09:31.294Z,8.70
2022-10-09T22:12:00.230Z,8.70
2022-10-09T22:14:28.118Z,8.60
2022-10-09T22:16:55.931Z,8.60
2022-10-09T22:19:23.732Z,8.50
2022-10-09T22:21:51.611Z,8.50
2022-10-09T22:24:19.408Z,8.50
2022-10-09T22:26:48.631Z,8.40
2022-10-09T22:29:16.499Z,8.30
2022-10-09T22:31:44.322Z,8.30
2022-10-09T22:34:12.161Z,8.30
2022-10-09T22:36:39.968Z,8.20
2022-10-09T22:39:08.219Z,8.20
2022-10-09T22:41:36.537Z,8.10
2022-10-09T22:44:07.757Z,8.00
2022-10-09T22:46:37.634Z,8.00
2022-10-09T22:49:06.208Z,8.00
2022-10-09T22:51:34.668Z,8.00
2022-10-09T22:54:02.541Z,8.00
2022-10-09T22:56:32.170Z,8.00
2022-10-09T22:59:00.436Z,7.90
2022-10-09T23:01:33.333Z,8.00
2022-10-09T23:04:03.053Z,7.90
2022-10-09T23:06:31.371Z,7.90
2022-10-09T23:08:59.337Z,7.80
2022-10-09T23:11:27.842Z,7.80
2022-10-09T23:13:57.332Z,7.80
2022-10-09T23:16:25.773Z,7.70
2022-10-09T23:18:57.679Z,7.70
2022-10-09T23:21:25.848Z,7.70
2022-10-09T23:23:54.257Z,7.70
2022-10-09T23:26:24.395Z,7.70
2022-10-09T23:28:53.271Z,7.60
2022-10-09T23:31:21.394Z,7.60
2022-10-09T23:33:49.886Z,7.60
2022-10-09T23:36:20.770Z,7.60
2022-10-09T23:38:49.084Z,7.50
2022-10-09T23:41:18.905Z,7.50
2022-10-09T23:43:47.345Z,7.50
2022-10-09T23:46:16.648Z,7.40
2022-10-09T23:48:45.412Z,7.40
2022-10-09T23:51:14.067Z,7.40
2022-10-09T23:53:44.104Z,7.40
2022-10-09T23:56:23.093Z,7.40
2022-10-09T23:58:51.049Z,7.30
